createdAt,value
2019-06-10T00:02:07.313Z,17.28
2019-06-10T00:04:37.352Z,17.33
2019-06-10T00:07:07.465Z,17.35
2019-06-10T00:09:37.416Z,17.23
2019-06-10T00:12:08.175Z,17.24
2019-06-10T00:14:38.877Z,17.16
2019-06-10T00:17:10.807Z,16.96
2019-06-10T00:19:40.937Z,16.90
2019-06-10T00:22:11.841Z,16.87
2019-06-10T00:24:41.781Z,16.86
2019-06-10T00:27:12.138Z,16.99
2019-06-10T00:29:42.081Z,17.10
2019-06-10T00:32:13.141Z,17.12
2019-06-10T00:34:43.440Z,16.82
2019-06-10T00:37:14.531Z,16.74
2019-06-10T00:39:44.779Z,16.68
2019-06-10T00:42:15.301Z,16.81
2019-06-10T00:44:45.319Z,16.69
2019-06-10T00:47:15.622Z,16.64
2019-06-10T00:49:45.535Z,16.62
2019-06-10T00:52:15.410Z,16.55
2019-06-10T00:54:45.304Z,16.47
2019-06-10T00:57:15.206Z,16.40
2019-06-10T00:59:45.007Z,16.47
2019-06-10T01:02:15.085Z,16.49
2019-06-10T01:04:46.030Z,16.53
2019-06-10T01:07:15.971Z,16.33
2019-06-10T01:09:45.786Z,16.18
2019-06-10T01:12:15.579Z,16.30
2019-06-10T01:14:45.493Z,16.30
2019-06-10T01:17:15.666Z,16.47
2019-06-10T01:19:45.692Z,16.21
2019-06-10T01:22:16.983Z,16.17
2019-06-10T01:24:47.174Z,16.07
2019-06-10T01:27:18.020Z,16.06
2019-06-10T01:29:47.955Z,16.02
2019-06-10T01:32:17.886Z,16.05
2019-06-10T01:34:47.682Z,16.04
2019-06-10T01:37:17.762Z,15.76
2019-06-10T01:39:47.814Z,15.90
2019-06-10T01:42:17.732Z,16.02
2019-06-10T01:44:47.646Z,16.00
2019-06-10T01:47:17.737Z,16.02
2019-06-10T01:49:47.519Z,15.85
2019-06-10T01:52:18.363Z,15.98
2019-06-10T01:54:48.433Z,15.79
2019-06-10T01:57:18.750Z,15.75
2019-06-10T01:59:50.921Z,15.82
2019-06-10T02:02:23.940Z,16.03
2019-06-10T02:04:54.137Z,15.91
2019-06-10T02:07:24.102Z,15.72
2019-06-10T02:09:53.871Z,15.65
2019-06-10T02:12:24.409Z,15.57
2019-06-10T02:14:54.301Z,15.51
2019-06-10T02:17:24.332Z,15.41
2019-06-10T02:19:54.139Z,15.36
2019-06-10T02:22:24.539Z,15.51
2019-06-10T02:24:54.532Z,15.53
2019-06-10T02:27:24.341Z,15.44
2019-06-10T02:29:54.216Z,15.32
2019-06-10T02:32:31.930Z,15.31
2019-06-10T02:35:07.993Z,15.29
2019-06-10T02:37:32.794Z,15.30
2019-06-10T02:39:58.548Z,15.22
2019-06-10T02:42:36.019Z,15.60
2019-06-10T02:45:06.619Z,15.40
2019-06-10T02:47:37.808Z,15.42
2019-06-10T02:50:09.801Z,15.34
2019-06-10T02:52:39.746Z,15.20
2019-06-10T02:55:14.063Z,15.03
2019-06-10T02:57:44.926Z,14.88
2019-06-10T03:00:20.628Z,14.85
2019-06-10T03:02:45.559Z,14.92
2019-06-10T03:05:17.594Z,14.92
2019-06-10T03:07:47.134Z,14.77
2019-06-10T03:10:19.518Z,14.92
2019-06-10T03:12:48.866Z,14.96
2019-06-10T03:15:19.964Z,14.97
2019-06-10T03:17:52.015Z,15.01
2019-06-10T03:20:24.314Z,15.09
2019-06-10T03:22:52.981Z,14.97
2019-06-10T03:25:24.551Z,14.95
2019-06-10T03:27:54.429Z,14.91
2019-06-10T03:30:37.406Z,14.89
2019-06-10T03:32:55.873Z,14.82
2019-06-10T03:35:26.951Z,14.86
2019-06-10T03:37:57.279Z,15.06
2019-06-10T03:40:27.743Z,15.17
2019-06-10T03:42:57.664Z,15.10
2019-06-10T03:45:28.555Z,15.05
2019-06-10T03:47:58.455Z,15.06
2019-06-10T03:50:28.760Z,15.03
2019-06-10T03:53:01.014Z,15.18
2019-06-10T03:55:32.898Z,15.19
2019-06-10T03:58:02.307Z,15.11
2019-06-10T04:00:32.702Z,15.16
2019-06-10T04:03:02.897Z,15.14
2019-06-10T04:05:33.232Z,15.11
2019-06-10T04:08:02.979Z,15.09
2019-06-10T04:10:33.066Z,15.17
2019-06-10T04:13:02.956Z,15.21
2019-06-10T04:15:33.052Z,15.25
2019-06-10T04:18:03.903Z,15.26
2019-06-10T04:20:33.998Z,15.32
2019-06-10T04:23:03.791Z,15.42
2019-06-10T04:25:33.661Z,15.50
2019-06-10T04:28:03.554Z,15.59
2019-06-10T04:30:33.338Z,15.76
2019-06-10T04:33:03.136Z,15.80
2019-06-10T04:35:33.662Z,15.77
2019-06-10T04:38:03.680Z,16.05
2019-06-10T04:40:33.584Z,15.84
2019-06-10T04:43:03.478Z,15.79
2019-06-10T04:45:33.367Z,15.89
2019-06-10T04:48:03.208Z,15.96
2019-06-10T04:50:42.299Z,15.92
2019-06-10T04:53:04.851Z,15.99
2019-06-10T04:55:34.747Z,16.01
2019-06-10T04:58:04.548Z,16.10
2019-06-10T05:00:34.342Z,16.02
2019-06-10T05:03:04.241Z,16.09
2019-06-10T05:05:34.134Z,16.02
2019-06-10T05:08:04.037Z,15.94
2019-06-10T05:10:33.814Z,15.87
2019-06-10T05:13:03.718Z,16.03
2019-06-10T05:15:34.882Z,16.15
2019-06-10T05:18:04.966Z,16.08
2019-06-10T05:20:51.064Z,16.09
2019-06-10T05:23:06.255Z,16.11
2019-06-10T05:25:36.044Z,16.10
2019-06-10T05:28:05.864Z,16.10
2019-06-10T05:30:35.680Z,16.06
2019-06-10T05:33:05.467Z,16.01
2019-06-10T05:35:35.278Z,16.06
2019-06-10T05:38:05.051Z,16.09
2019-06-10T05:40:34.852Z,16.15
2019-06-10T05:43:04.717Z,16.21
2019-06-10T05:45:35.274Z,16.25
2019-06-10T05:48:05.153Z,16.29
2019-06-10T05:50:35.147Z,16.22
2019-06-10T05:53:05.073Z,16.25
2019-06-10T05:55:35.374Z,16.51
2019-06-10T05:58:05.197Z,16.51
2019-06-10T06:00:35.634Z,16.56
2019-06-10T06:03:05.503Z,16.62
2019-06-10T06:05:37.591Z,16.63
2019-06-10T06:08:08.883Z,16.75
2019-06-10T06:10:38.297Z,16.87
2019-06-10T06:13:08.072Z,16.96
2019-06-10T06:15:38.155Z,16.92
2019-06-10T06:18:10.719Z,16.83
2019-06-10T06:20:39.516Z,16.82
2019-06-10T06:23:09.388Z,16.85
2019-06-10T06:25:43.189Z,16.79
2019-06-10T06:28:12.890Z,16.86
2019-06-10T06:30:42.408Z,16.93
2019-06-10T06:33:13.540Z,16.93
2019-06-10T06:35:46.491Z,17.00
2019-06-10T06:38:15.195Z,16.99
2019-06-10T06:40:44.976Z,16.93
2019-06-10T06:43:14.773Z,17.05
2019-06-10T06:45:44.678Z,17.13
2019-06-10T06:48:14.472Z,17.17
2019-06-10T06:51:00.262Z,17.09
2019-06-10T06:53:25.593Z,17.28
2019-06-10T06:55:47.255Z,17.18
2019-06-10T06:58:17.050Z,17.23
2019-06-10T07:01:00.715Z,17.35
2019-06-10T07:03:18.335Z,17.34
2019-06-10T07:05:48.234Z,17.25
2019-06-10T07:08:18.180Z,17.36
2019-06-10T07:10:47.981Z,17.46
2019-06-10T07:13:17.740Z,17.53
2019-06-10T07:15:47.933Z,17.48
2019-06-10T07:18:17.756Z,17.45
2019-06-10T07:20:47.544Z,17.55
2019-06-10T07:23:17.333Z,17.66
2019-06-10T07:25:47.803Z,17.78
2019-06-10T07:28:17.664Z,17.57
2019-06-10T07:30:52.820Z,17.46
2019-06-10T07:33:18.959Z,17.65
2019-06-10T07:35:48.760Z,17.63
2019-06-10T07:38:18.573Z,17.77
2019-06-10T07:40:48.349Z,17.68
2019-06-10T07:43:18.147Z,17.91
2019-06-10T07:45:48.272Z,17.90
2019-06-10T07:48:18.010Z,17.79
2019-06-10T07:50:47.795Z,17.86
2019-06-10T07:53:17.586Z,17.99
2019-06-10T07:55:47.369Z,17.96
2019-06-10T07:58:17.156Z,18.05
2019-06-10T08:00:48.518Z,17.98
2019-06-10T08:03:18.427Z,17.94
2019-06-10T08:05:48.210Z,17.90
2019-06-10T08:08:18.024Z,17.84
2019-06-10T08:10:48.247Z,17.82
2019-06-10T08:13:18.099Z,17.86
2019-06-10T08:15:48.424Z,18.05
2019-06-10T08:18:18.267Z,18.18
2019-06-10T08:20:48.090Z,18.26
2019-06-10T08:23:20.251Z,18.28
2019-06-10T08:25:56.454Z,18.40
2019-06-10T08:28:23.042Z,18.40
2019-06-10T08:30:53.476Z,18.38
2019-06-10T08:33:23.279Z,18.35
2019-06-10T08:35:59.524Z,18.45
2019-06-10T08:38:24.652Z,18.61
2019-06-10T08:40:54.468Z,18.76
2019-06-10T08:43:24.268Z,19.01
2019-06-10T08:45:54.050Z,19.25
2019-06-10T08:48:23.840Z,19.06
2019-06-10T08:50:54.096Z,18.82
2019-06-10T08:53:24.271Z,18.84
2019-06-10T08:55:54.093Z,18.73
2019-06-10T08:58:23.892Z,18.77
2019-06-10T09:00:54.033Z,18.85
2019-06-10T09:03:23.855Z,18.96
2019-06-10T09:05:57.682Z,19.24
2019-06-10T09:08:25.919Z,19.79
2019-06-10T09:10:55.823Z,19.55
2019-06-10T09:13:25.644Z,19.53
2019-06-10T09:16:11.747Z,19.74
2019-06-10T09:18:27.587Z,19.77
2019-06-10T09:20:57.485Z,19.77
2019-06-10T09:23:27.371Z,19.68
2019-06-10T09:25:58.975Z,19.69
2019-06-10T09:28:28.831Z,19.76
2019-06-10T09:30:59.756Z,19.67
2019-06-10T09:33:29.802Z,19.77
2019-06-10T09:35:59.598Z,19.71
2019-06-10T09:38:29.408Z,19.84
2019-06-10T09:41:04.935Z,19.90
2019-06-10T09:43:33.359Z,19.89
2019-06-10T09:46:03.590Z,20.10
2019-06-10T09:48:33.986Z,19.98
2019-06-10T09:51:03.843Z,20.33
2019-06-10T09:53:42.235Z,20.27
2019-06-10T09:56:05.118Z,20.07
2019-06-10T09:58:34.932Z,20.28
2019-06-10T10:01:06.770Z,20.41
2019-06-10T10:03:36.566Z,20.49
2019-06-10T10:06:14.660Z,21.00
2019-06-10T10:08:38.813Z,20.80
2019-06-10T10:11:08.611Z,20.83
2019-06-10T10:13:38.508Z,20.93
2019-06-10T10:16:08.387Z,20.88
2019-06-10T10:18:38.273Z,21.34
2019-06-10T10:21:08.089Z,21.76
2019-06-10T10:23:52.465Z,21.80
2019-06-10T10:26:09.485Z,21.46
2019-06-10T10:28:39.384Z,21.48
2019-06-10T10:31:09.183Z,21.32
2019-06-10T10:33:38.983Z,21.19
2019-06-10T10:36:08.773Z,21.38
2019-06-10T10:38:38.658Z,21.54
2019-06-10T10:41:08.637Z,21.75
2019-06-10T10:43:38.421Z,21.79
2019-06-10T10:46:08.323Z,21.80
2019-06-10T10:48:38.240Z,22.01
2019-06-10T10:51:08.112Z,21.95
2019-06-10T10:53:37.914Z,21.96
2019-06-10T10:56:07.706Z,22.08
2019-06-10T10:58:37.505Z,22.22
2019-06-10T11:01:07.307Z,21.94
2019-06-10T11:03:37.321Z,22.01
2019-06-10T11:06:07.170Z,22.14
2019-06-10T11:08:36.970Z,21.97
2019-06-10T11:11:07.401Z,21.89
2019-06-10T11:13:38.037Z,21.88
2019-06-10T11:16:07.831Z,22.06
2019-06-10T11:18:37.700Z,22.18
2019-06-10T11:21:07.688Z,22.17
2019-06-10T11:23:37.460Z,22.07
2019-06-10T11:26:07.339Z,22.03
2019-06-10T11:28:37.236Z,22.08
2019-06-10T11:31:07.022Z,22.28
2019-06-10T11:33:36.826Z,22.44
2019-06-10T11:36:06.604Z,22.40
2019-06-10T11:38:36.526Z,22.40
2019-06-10T11:41:06.442Z,22.26
2019-06-10T11:43:36.314Z,22.32
2019-06-10T11:46:07.732Z,22.36
2019-06-10T11:48:38.027Z,22.37
2019-06-10T11:51:07.785Z,22.57
2019-06-10T11:53:37.571Z,22.61
2019-06-10T11:56:07.447Z,22.68
2019-06-10T11:58:37.249Z,22.74
2019-06-10T12:01:07.045Z,22.84
2019-06-10T12:03:36.839Z,22.90
2019-06-10T12:06:06.686Z,22.84
2019-06-10T12:08:36.585Z,22.94
2019-06-10T12:11:06.354Z,22.88
2019-06-10T12:13:36.246Z,23.00
2019-06-10T12:16:50.804Z,23.15
2019-06-10T12:18:37.636Z,23.29
2019-06-10T12:21:07.437Z,23.08
2019-06-10T12:23:37.316Z,23.38
2019-06-10T12:26:07.181Z,23.20
2019-06-10T12:28:36.972Z,22.94
2019-06-10T12:31:07.615Z,23.02
2019-06-10T12:33:37.587Z,22.92
2019-06-10T12:36:07.754Z,22.94
2019-06-10T12:38:37.542Z,23.06
2019-06-10T12:41:10.157Z,23.20
2019-06-10T12:43:38.830Z,23.44
2019-06-10T12:46:08.686Z,23.36
2019-06-10T12:48:38.487Z,23.40
2019-06-10T12:51:09.738Z,23.49
2019-06-10T12:53:39.636Z,23.47
2019-06-10T12:56:11.260Z,23.47
2019-06-10T12:58:43.278Z,23.69
2019-06-10T13:01:12.468Z,23.61
2019-06-10T13:03:43.566Z,23.58
2019-06-10T13:06:15.521Z,23.50
2019-06-10T13:08:47.097Z,23.52
2019-06-10T13:11:16.874Z,23.59
2019-06-10T13:13:46.772Z,23.69
2019-06-10T13:16:16.927Z,23.50
2019-06-10T13:18:46.907Z,23.38
2019-06-10T13:21:17.921Z,23.17
2019-06-10T13:23:47.756Z,23.16
2019-06-10T13:26:17.969Z,23.35
2019-06-10T13:28:47.838Z,23.37
2019-06-10T13:31:18.319Z,23.45
2019-06-10T13:33:48.214Z,23.53
2019-06-10T13:36:18.009Z,23.30
2019-06-10T13:38:47.799Z,23.15
2019-06-10T13:41:17.682Z,23.10
2019-06-10T13:43:47.577Z,23.07
2019-06-10T13:46:17.376Z,23.22
2019-06-10T13:48:47.169Z,23.27
2019-06-10T13:51:17.203Z,23.33
2019-06-10T13:53:47.012Z,23.40
2019-06-10T13:56:38.399Z,23.23
2019-06-10T13:58:48.305Z,23.13
2019-06-10T14:01:21.894Z,23.23
2019-06-10T14:03:49.606Z,23.20
2019-06-10T14:06:37.127Z,23.01
2019-06-10T14:08:54.546Z,22.97
2019-06-10T14:11:27.942Z,22.93
2019-06-10T14:13:54.138Z,22.94
2019-06-10T14:16:24.154Z,22.89
2019-06-10T14:18:54.364Z,23.04
2019-06-10T14:21:24.159Z,23.23
2019-06-10T14:23:53.949Z,23.17
2019-06-10T14:26:36.868Z,23.09
2019-06-10T14:28:55.203Z,22.97
2019-06-10T14:31:39.190Z,23.18
2019-06-10T14:33:56.476Z,22.92
2019-06-10T14:36:26.269Z,23.00
2019-06-10T14:38:56.068Z,23.06
2019-06-10T14:41:26.203Z,23.06
2019-06-10T14:43:56.015Z,22.88
2019-06-10T14:46:25.803Z,22.92
2019-06-10T14:48:55.583Z,22.93
2019-06-10T14:51:25.379Z,22.84
2019-06-10T14:53:55.192Z,22.61
2019-06-10T14:56:24.992Z,22.73
2019-06-10T14:58:54.781Z,22.88
2019-06-10T15:01:25.884Z,23.20
2019-06-10T15:03:55.823Z,23.07
2019-06-10T15:06:25.627Z,23.26
2019-06-10T15:08:55.447Z,23.44
2019-06-10T15:11:27.685Z,23.30
2019-06-10T15:13:56.755Z,22.91
2019-06-10T15:16:26.548Z,22.89
2019-06-10T15:19:10.975Z,23.03
2019-06-10T15:21:27.902Z,22.90
2019-06-10T15:23:57.698Z,22.97
2019-06-10T15:26:27.465Z,22.91
2019-06-10T15:28:57.509Z,22.82
2019-06-10T15:31:27.295Z,22.91
2019-06-10T15:33:57.090Z,23.14
2019-06-10T15:36:26.895Z,22.90
2019-06-10T15:38:56.689Z,23.08
2019-06-10T15:41:26.472Z,23.25
2019-06-10T15:43:56.266Z,23.15
2019-06-10T15:46:26.072Z,22.92
2019-06-10T15:48:55.863Z,22.79
2019-06-10T15:51:26.250Z,22.93
2019-06-10T15:53:56.110Z,22.87
2019-06-10T15:56:38.748Z,22.81
2019-06-10T15:58:57.406Z,22.97
2019-06-10T16:01:27.603Z,22.89
2019-06-10T16:03:57.479Z,22.93
2019-06-10T16:06:27.259Z,22.94
2019-06-10T16:08:57.125Z,23.00
2019-06-10T16:11:27.361Z,23.18
2019-06-10T16:13:57.243Z,23.30
2019-06-10T16:16:27.028Z,23.23
2019-06-10T16:18:56.804Z,23.24
2019-06-10T16:21:26.623Z,23.33
2019-06-10T16:23:56.422Z,23.28
2019-06-10T16:26:26.981Z,23.10
2019-06-10T16:28:56.900Z,23.06
2019-06-10T16:31:27.556Z,22.96
2019-06-10T16:33:57.460Z,22.94
2019-06-10T16:36:27.986Z,22.97
2019-06-10T16:38:57.981Z,23.02
2019-06-10T16:41:28.232Z,22.20
2019-06-10T16:43:58.057Z,21.83
2019-06-10T16:46:29.120Z,21.57
2019-06-10T16:48:58.924Z,21.51
2019-06-10T16:51:29.889Z,21.55
2019-06-10T16:53:59.699Z,21.56
2019-06-10T16:56:30.953Z,21.53
2019-06-10T16:59:02.943Z,21.51
2019-06-10T17:01:33.285Z,21.55
2019-06-10T17:04:03.144Z,21.57
2019-06-10T17:06:32.931Z,22.01
2019-06-10T17:09:02.978Z,22.27
2019-06-10T17:11:32.713Z,22.08
2019-06-10T17:14:03.129Z,22.17
2019-06-10T17:16:33.164Z,22.28
2019-06-10T17:19:02.987Z,22.17
2019-06-10T17:21:34.754Z,21.98
2019-06-10T17:24:04.345Z,22.26
2019-06-10T17:26:37.841Z,22.11
2019-06-10T17:29:05.798Z,22.24
2019-06-10T17:31:35.583Z,22.25
2019-06-10T17:34:05.388Z,22.00
2019-06-10T17:36:35.578Z,21.86
2019-06-10T17:39:08.636Z,21.69
2019-06-10T17:41:38.716Z,21.60
2019-06-10T17:44:08.492Z,21.42
2019-06-10T17:46:38.332Z,21.24
2019-06-10T17:49:08.130Z,21.20
2019-06-10T17:51:38.079Z,21.17
2019-06-10T17:54:07.864Z,21.24
2019-06-10T17:56:37.742Z,21.19
2019-06-10T17:59:07.547Z,21.08
2019-06-10T18:01:37.374Z,21.15
2019-06-10T18:04:07.262Z,21.24
2019-06-10T18:06:37.063Z,21.17
2019-06-10T18:09:07.538Z,20.99
2019-06-10T18:11:37.421Z,21.02
2019-06-10T18:14:07.227Z,20.95
2019-06-10T18:16:37.021Z,20.92
2019-06-10T18:19:06.818Z,20.71
2019-06-10T18:21:36.726Z,20.56
2019-06-10T18:24:08.364Z,20.24
2019-06-10T18:26:38.183Z,20.04
2019-06-10T18:29:09.377Z,20.08
2019-06-10T18:31:39.419Z,20.28
2019-06-10T18:34:09.263Z,20.27
2019-06-10T18:36:39.227Z,20.12
2019-06-10T18:39:09.089Z,19.71
2019-06-10T18:41:40.064Z,19.44
2019-06-10T18:44:19.827Z,19.53
2019-06-10T18:46:43.379Z,19.39
2019-06-10T18:49:13.567Z,19.34
2019-06-10T18:51:43.709Z,19.29
2019-06-10T18:54:13.745Z,19.13
2019-06-10T18:56:43.526Z,19.13
2019-06-10T18:59:19.567Z,19.28
2019-06-10T19:01:44.928Z,19.37
2019-06-10T19:04:14.723Z,19.33
2019-06-10T19:06:44.518Z,19.21
2019-06-10T19:09:14.313Z,19.27
2019-06-10T19:11:44.183Z,19.20
2019-06-10T19:14:13.993Z,19.20
2019-06-10T19:16:43.788Z,19.21
2019-06-10T19:19:13.583Z,19.21
2019-06-10T19:21:44.029Z,19.15
2019-06-10T19:24:14.089Z,19.01
2019-06-10T19:26:45.119Z,18.92
2019-06-10T19:29:30.003Z,18.90
2019-06-10T19:31:46.631Z,19.00
2019-06-10T19:34:16.380Z,19.06
2019-06-10T19:36:46.204Z,19.16
2019-06-10T19:39:16.213Z,19.27
2019-06-10T19:41:47.504Z,19.24
2019-06-10T19:44:17.583Z,19.01
2019-06-10T19:46:47.480Z,19.00
2019-06-10T19:49:17.277Z,19.10
2019-06-10T19:51:47.310Z,19.13
2019-06-10T19:54:17.100Z,19.15
2019-06-10T19:56:46.884Z,19.15
2019-06-10T19:59:16.775Z,18.88
2019-06-10T20:01:48.604Z,18.98
2019-06-10T20:04:18.478Z,18.90
2019-06-10T20:06:50.632Z,18.84
2019-06-10T20:09:19.734Z,18.86
2019-06-10T20:11:49.609Z,18.77
2019-06-10T20:14:19.522Z,18.64
2019-06-10T20:16:49.323Z,18.60
2019-06-10T20:19:19.154Z,18.61
2019-06-10T20:21:49.182Z,18.64
2019-06-10T20:24:19.004Z,18.54
2019-06-10T20:26:48.883Z,18.54
2019-06-10T20:29:18.766Z,18.38
2019-06-10T20:31:49.024Z,18.24
2019-06-10T20:34:19.678Z,18.02
2019-06-10T20:36:50.277Z,17.93
2019-06-10T20:39:24.369Z,17.74
2019-06-10T20:41:54.993Z,17.64
2019-06-10T20:44:23.093Z,17.67
2019-06-10T20:46:53.099Z,17.50
2019-06-10T20:49:23.058Z,17.34
2019-06-10T20:52:06.530Z,17.28
2019-06-10T20:54:24.429Z,17.03
2019-06-10T20:56:54.329Z,16.92
2019-06-10T20:59:25.951Z,16.68
2019-06-10T21:01:55.797Z,16.74
2019-06-10T21:04:25.591Z,16.81
2019-06-10T21:06:56.933Z,16.74
2019-06-10T21:09:27.769Z,16.84
2019-06-10T21:11:57.583Z,16.92
2019-06-10T21:14:27.371Z,16.97
2019-06-10T21:16:57.277Z,17.06
2019-06-10T21:19:27.171Z,17.16
2019-06-10T21:21:57.080Z,17.19
2019-06-10T21:24:26.947Z,17.18
2019-06-10T21:26:56.764Z,17.03
2019-06-10T21:29:26.577Z,17.00
2019-06-10T21:31:56.367Z,16.92
2019-06-10T21:34:26.176Z,17.00
2019-06-10T21:36:56.073Z,17.04
2019-06-10T21:39:26.004Z,17.10
2019-06-10T21:41:55.903Z,17.12
2019-06-10T21:44:25.784Z,17.27
2019-06-10T21:46:55.572Z,17.27
2019-06-10T21:49:25.377Z,17.25
2019-06-10T21:51:57.102Z,17.27
2019-06-10T21:54:26.665Z,17.21
2019-06-10T21:56:56.568Z,17.26
2019-06-10T21:59:26.342Z,17.14
2019-06-10T22:01:56.287Z,17.13
2019-06-10T22:04:26.084Z,17.17
2019-06-10T22:06:56.389Z,17.07
2019-06-10T22:09:26.369Z,17.16
2019-06-10T22:11:56.262Z,17.25
2019-06-10T22:14:26.048Z,17.34
2019-06-10T22:16:56.518Z,17.41
2019-06-10T22:19:26.405Z,17.47
2019-06-10T22:21:56.834Z,17.47
2019-06-10T22:24:26.751Z,17.50
2019-06-10T22:26:56.574Z,17.42
2019-06-10T22:29:26.397Z,17.44
2019-06-10T22:31:57.279Z,17.48
2019-06-10T22:34:27.257Z,17.49
2019-06-10T22:36:57.715Z,17.43
2019-06-10T22:39:27.597Z,17.41
2019-06-10T22:41:57.392Z,17.34
2019-06-10T22:44:27.192Z,17.28
2019-06-10T22:46:57.385Z,17.28
2019-06-10T22:49:27.330Z,17.29
2019-06-10T22:51:58.962Z,17.26
2019-06-10T22:54:28.723Z,17.29
2019-06-10T22:57:00.043Z,17.29
2019-06-10T22:59:30.205Z,17.28
2019-06-10T23:02:02.838Z,17.27
2019-06-10T23:04:33.227Z,17.33
2019-06-10T23:07:03.370Z,17.39
2019-06-10T23:09:33.308Z,17.41
2019-06-10T23:12:03.201Z,17.42
2019-06-10T23:14:33.337Z,17.39
2019-06-10T23:17:03.382Z,17.37
2019-06-10T23:19:33.394Z,17.27
2019-06-10T23:22:03.323Z,17.25
2019-06-10T23:24:33.223Z,17.26
2019-06-10T23:27:03.594Z,17.23
2019-06-10T23:29:33.432Z,17.32
2019-06-10T23:32:06.672Z,17.37
2019-06-10T23:34:34.957Z,17.39
2019-06-10T23:37:04.838Z,17.43
2019-06-10T23:39:34.661Z,17.40
2019-06-10T23:42:04.615Z,17.37
2019-06-10T23:44:34.704Z,17.33
2019-06-10T23:47:04.872Z,17.25
2019-06-10T23:49:34.681Z,17.23
2019-06-10T23:52:05.489Z,17.14
2019-06-10T23:54:35.465Z,17.17
2019-06-10T23:57:06.262Z,17.21
2019-06-10T23:59:36.280Z,17.20
